sensor_id;sensor_type;location;lat;lon;timestamp;pressure;altitude;pressure_sealevel;temperature;humidity
7730;BME280;3908;52.310;7.230;2023-02-12T00:00:26;51428.72;;;-145.83;100.00
7730;BME280;3908;52.310;7.230;2023-02-12T00:03:13;51461.97;;;-145.83;100.00
7730;BME280;3908;52.310;7.230;2023-02-12T00:06:02;51463.91;;;-145.83;100.00
7730;BME280;3908;52.310;7.230;2023-02-12T00:08:50;51418.94;;;-145.83;100.00
7730;BME280;3908;52.310;7.230;2023-02-12T00:11:37;51448.28;;;-145.83;100.00
7730;BME280;3908;52.310;7.230;2023-02-12T00:14:26;51420.88;;;-145.83;100.00
7730;BME280;3908;52.310;7.230;2023-02-12T00:17:13;51436.53;;;-145.83;100.00
7730;BME280;3908;52.310;7.230;2023-02-12T00:20:02;51452.19;;;-145.83;100.00
7730;BME280;3908;52.310;7.230;2023-02-12T00:22:49;51420.88;;;-145.83;100.00
7730;BME280;3908;52.310;7.230;2023-02-12T00:25:40;51430.66;;;-145.83;100.00
7730;BME280;3908;52.310;7.230;2023-02-12T00:28:27;51415.00;;;-145.83;100.00
7730;BME280;3908;52.310;7.230;2023-02-12T00:31:25;51420.88;;;-145.83;100.00
7730;BME280;3908;52.310;7.230;2023-02-12T00:34:13;51430.66;;;-145.83;100.00
7730;BME280;3908;52.310;7.230;2023-02-12T00:37:00;51467.84;;;-145.83;100.00
7730;BME280;3908;52.310;7.230;2023-02-12T00:39:47;51442.41;;;-145.83;100.00
7730;BME280;3908;52.310;7.230;2023-02-12T00:42:34;51434.56;;;-145.83;100.00
7730;BME280;3908;52.310;7.230;2023-02-12T00:45:21;51440.44;;;-145.83;100.00
7730;BME280;3908;52.310;7.230;2023-02-12T00:48:10;51436.53;;;-145.83;100.00
7730;BME280;3908;52.310;7.230;2023-02-12T00:50:58;51436.53;;;-145.83;100.00
7730;BME280;3908;52.310;7.230;2023-02-12T00:53:45;51452.19;;;-145.83;100.00
7730;BME280;3908;52.310;7.230;2023-02-12T00:56:32;51463.91;;;-145.83;100.00
7730;BME280;3908;52.310;7.230;2023-02-12T00:59:19;51401.31;;;-145.83;100.00
7730;BME280;3908;52.310;7.230;2023-02-12T01:02:06;51428.72;;;-145.83;100.00
7730;BME280;3908;52.310;7.230;2023-02-12T01:04:55;51456.09;;;-145.83;100.00
7730;BME280;3908;52.310;7.230;2023-02-12T01:07:43;51434.56;;;-145.83;100.00
7730;BME280;3908;52.310;7.230;2023-02-12T01:10:30;51448.28;;;-145.83;100.00
7730;BME280;3908;52.310;7.230;2023-02-12T01:13:17;51479.56;;;-145.83;100.00
7730;BME280;3908;52.310;7.230;2023-02-12T01:16:06;51446.31;;;-145.83;100.00
7730;BME280;3908;52.310;7.230;2023-02-12T01:18:55;51420.88;;;-145.83;100.00
7730;BME280;3908;52.310;7.230;2023-02-12T01:21:43;51456.09;;;-145.83;100.00
7730;BME280;3908;52.310;7.230;2023-02-12T01:24:30;51422.84;;;-145.83;100.00
7730;BME280;3908;52.310;7.230;2023-02-12T01:27:18;51446.31;;;-145.83;100.00
7730;BME280;3908;52.310;7.230;2023-02-12T01:30:07;51432.63;;;-145.83;100.00
7730;BME280;3908;52.310;7.230;2023-02-12T01:32:55;51442.41;;;-145.83;100.00
7730;BME280;3908;52.310;7.230;2023-02-12T01:35:42;51405.22;;;-145.83;100.00
7730;BME280;3908;52.310;7.230;2023-02-12T01:38:30;51389.59;;;-145.83;100.00
7730;BME280;3908;52.310;7.230;2023-02-12T01:41:20;51428.72;;;-145.83;100.00
7730;BME280;3908;52.310;7.230;2023-02-12T01:44:11;51479.56;;;-145.83;100.00
7730;BME280;3908;52.310;7.230;2023-02-12T01:47:02;51456.09;;;-145.83;100.00
7730;BME280;3908;52.310;7.230;2023-02-12T01:49:49;51420.88;;;-145.83;100.00
7730;BME280;3908;52.310;7.230;2023-02-12T01:52:39;51432.63;;;-145.83;100.00
7730;BME280;3908;52.310;7.230;2023-02-12T01:55:31;51389.59;;;-145.83;100.00
7730;BME280;3908;52.310;7.230;2023-02-12T01:58:20;51430.66;;;-145.83;100.00
7730;BME280;3908;52.310;7.230;2023-02-12T02:01:14;51471.75;;;-145.83;100.00
7730;BME280;3908;52.310;7.230;2023-02-12T02:04:06;51416.97;;;-145.83;100.00
7730;BME280;3908;52.310;7.230;2023-02-12T02:06:57;51418.94;;;-145.83;100.00
7730;BME280;3908;52.310;7.230;2023-02-12T02:09:45;51448.28;;;-145.83;100.00
7730;BME280;3908;52.310;7.230;2023-02-12T02:12:33;51434.56;;;-145.83;100.00
7730;BME280;3908;52.310;7.230;2023-02-12T02:15:39;51452.19;;;-145.83;100.00
7730;BME280;3908;52.310;7.230;2023-02-12T02:18:31;51442.41;;;-145.83;100.00
7730;BME280;3908;52.310;7.230;2023-02-12T02:25:07;51467.84;;;-145.83;100.00
7730;BME280;3908;52.310;7.230;2023-02-12T02:28:13;51428.72;;;-145.83;100.00
7730;BME280;3908;52.310;7.230;2023-02-12T02:31:12;51428.72;;;-145.83;100.00
7730;BME280;3908;52.310;7.230;2023-02-12T02:34:05;51444.34;;;-145.83;100.00
7730;BME280;3908;52.310;7.230;2023-02-12T02:37:00;51440.44;;;-145.83;100.00
7730;BME280;3908;52.310;7.230;2023-02-12T02:39:51;51440.44;;;-145.83;100.00
7730;BME280;3908;52.310;7.230;2023-02-12T02:42:45;51422.84;;;-145.83;100.00
7730;BME280;3908;52.310;7.230;2023-02-12T02:45:37;51436.53;;;-145.83;100.00
7730;BME280;3908;52.310;7.230;2023-02-12T02:48:30;51405.22;;;-145.83;100.00
7730;BME280;3908;52.310;7.230;2023-02-12T02:51:22;51442.41;;;-145.83;100.00
7730;BME280;3908;52.310;7.230;2023-02-12T02:54:15;51458.06;;;-145.83;100.00
7730;BME280;3908;52.310;7.230;2023-02-12T02:57:07;51415.00;;;-145.83;100.00
7730;BME280;3908;52.310;7.230;2023-02-12T02:59:59;51407.19;;;-145.83;100.00
7730;BME280;3908;52.310;7.230;2023-02-12T03:02:53;51448.28;;;-145.83;100.00
7730;BME280;3908;52.310;7.230;2023-02-12T03:05:46;51442.41;;;-145.83;100.00
7730;BME280;3908;52.310;7.230;2023-02-12T03:08:38;51432.63;;;-145.83;100.00
7730;BME280;3908;52.310;7.230;2023-02-12T03:11:30;51401.31;;;-145.83;100.00
7730;BME280;3908;52.310;7.230;2023-02-12T03:14:21;51424.78;;;-145.83;100.00
7730;BME280;3908;52.310;7.230;2023-02-12T03:17:11;51375.88;;;-145.83;100.00
7730;BME280;3908;52.310;7.230;2023-02-12T03:20:04;51411.09;;;-145.83;100.00
7730;BME280;3908;52.310;7.230;2023-02-12T03:22:57;51428.72;;;-145.83;100.00
7730;BME280;3908;52.310;7.230;2023-02-12T03:25:49;51440.44;;;-145.83;100.00
7730;BME280;3908;52.310;7.230;2023-02-12T03:28:41;51448.28;;;-145.83;100.00
7730;BME280;3908;52.310;7.230;2023-02-12T03:31:32;51440.44;;;-145.83;100.00
7730;BME280;3908;52.310;7.230;2023-02-12T03:34:30;51442.41;;;-145.83;100.00
7730;BME280;3908;52.310;7.230;2023-02-12T03:37:26;51454.13;;;-145.83;100.00
7730;BME280;3908;52.310;7.230;2023-02-12T03:40:17;51409.16;;;-145.83;100.00
7730;BME280;3908;52.310;7.230;2023-02-12T03:43:08;51422.84;;;-145.83;100.00
7730;BME280;3908;52.310;7.230;2023-02-12T03:46:02;51444.34;;;-145.83;100.00
7730;BME280;3908;52.310;7.230;2023-02-12T03:48:58;51446.31;;;-145.83;100.00
7730;BME280;3908;52.310;7.230;2023-02-12T03:51:47;51456.09;;;-145.83;100.00
7730;BME280;3908;52.310;7.230;2023-02-12T03:54:34;51450.22;;;-145.83;100.00
7730;BME280;3908;52.310;7.230;2023-02-12T03:57:25;51422.84;;;-145.83;100.00
7730;BME280;3908;52.310;7.230;2023-02-12T04:00:17;51442.41;;;-145.83;100.00
7730;BME280;3908;52.310;7.230;2023-02-12T04:03:06;51430.66;;;-145.83;100.00
7730;BME280;3908;52.310;7.230;2023-02-12T04:05:53;51463.91;;;-145.83;100.00
7730;BME280;3908;52.310;7.230;2023-02-12T04:08:40;51418.94;;;-145.83;100.00
7730;BME280;3908;52.310;7.230;2023-02-12T04:11:30;51401.31;;;-145.83;100.00
7730;BME280;3908;52.310;7.230;2023-02-12T04:14:31;51403.28;;;-145.83;100.00
7730;BME280;3908;52.310;7.230;2023-02-12T04:17:30;51418.94;;;-145.83;100.00
7730;BME280;3908;52.310;7.230;2023-02-12T04:20:25;51428.72;;;-145.83;100.00
7730;BME280;3908;52.310;7.230;2023-02-12T04:23:31;51413.06;;;-145.83;100.00
7730;BME280;3908;52.310;7.230;2023-02-12T04:26:26;51450.22;;;-145.83;100.00
7730;BME280;3908;52.310;7.230;2023-02-12T04:29:28;51428.72;;;-145.83;100.00
7730;BME280;3908;52.310;7.230;2023-02-12T04:32:26;51407.19;;;-145.83;100.00
7730;BME280;3908;52.310;7.230;2023-02-12T04:35:21;51438.50;;;-145.83;100.00
7730;BME280;3908;52.310;7.230;2023-02-12T04:38:12;51413.06;;;-145.83;100.00
7730;BME280;3908;52.310;7.230;2023-02-12T04:41:04;51430.66;;;-145.83;100.00
7730;BME280;3908;52.310;7.230;2023-02-12T04:43:52;51442.41;;;-145.83;100.00
7730;BME280;3908;52.310;7.230;2023-02-12T04:46:40;51430.66;;;-145.83;100.00
7730;BME280;3908;52.310;7.230;2023-02-12T04:49:27;51401.31;;;-145.83;100.00
7730;BME280;3908;52.310;7.230;2023-02-12T04:52:14;51467.84;;;-145.83;100.00
7730;BME280;3908;52.310;7.230;2023-02-12T04:55:01;51366.09;;;-145.83;100.00
7730;BME280;3908;52.310;7.230;2023-02-12T04:57:48;51422.84;;;-145.83;100.00
7730;BME280;3908;52.310;7.230;2023-02-12T05:00:35;51428.72;;;-145.83;100.00
7730;BME280;3908;52.310;7.230;2023-02-12T05:03:24;51432.63;;;-145.83;100.00
7730;BME280;3908;52.310;7.230;2023-02-12T05:06:11;51413.06;;;-145.83;100.00
7730;BME280;3908;52.310;7.230;2023-02-12T05:08:58;51415.00;;;-145.83;100.00
7730;BME280;3908;52.310;7.230;2023-02-12T05:11:45;51416.97;;;-145.83;100.00
7730;BME280;3908;52.310;7.230;2023-02-12T05:14:32;51487.41;;;-145.83;100.00
7730;BME280;3908;52.310;7.230;2023-02-12T05:17:20;51418.94;;;-145.83;100.00
7730;BME280;3908;52.310;7.230;2023-02-12T05:20:10;51428.72;;;-145.83;100.00
7730;BME280;3908;52.310;7.230;2023-02-12T05:22:57;51409.16;;;-145.83;100.00
7730;BME280;3908;52.310;7.230;2023-02-12T05:25:44;51397.41;;;-145.83;100.00
7730;BME280;3908;52.310;7.230;2023-02-12T05:28:33;51424.78;;;-145.83;100.00
7730;BME280;3908;52.310;7.230;2023-02-12T05:31:20;51401.31;;;-145.83;100.00
7730;BME280;3908;52.310;7.230;2023-02-12T05:34:11;51391.53;;;-145.83;100.00
7730;BME280;3908;52.310;7.230;2023-02-12T05:37:00;51385.66;;;-145.83;100.00
7730;BME280;3908;52.310;7.230;2023-02-12T05:39:47;51411.09;;;-145.83;100.00
7730;BME280;3908;52.310;7.230;2023-02-12T05:42:35;51418.94;;;-145.83;100.00
7730;BME280;3908;52.310;7.230;2023-02-12T05:45:22;51420.88;;;-145.83;100.00
7730;BME280;3908;52.310;7.230;2023-02-12T05:48:12;51377.84;;;-145.83;100.00
7730;BME280;3908;52.310;7.230;2023-02-12T05:51:03;51403.28;;;-145.83;100.00
7730;BME280;3908;52.310;7.230;2023-02-12T05:53:57;51383.72;;;-145.83;100.00
7730;BME280;3908;52.310;7.230;2023-02-12T05:56:46;51444.34;;;-145.83;100.00
7730;BME280;3908;52.310;7.230;2023-02-12T05:59:33;51397.41;;;-145.83;100.00
7730;BME280;3908;52.310;7.230;2023-02-12T06:02:22;51452.19;;;-145.83;100.00
7730;BME280;3908;52.310;7.230;2023-02-12T06:05:09;51411.09;;;-145.83;100.00
7730;BME280;3908;52.310;7.230;2023-02-12T06:08:03;51416.97;;;-145.83;100.00
7730;BME280;3908;52.310;7.230;2023-02-12T06:10:52;51405.22;;;-145.83;100.00
7730;BME280;3908;52.310;7.230;2023-02-12T06:13:39;51428.72;;;-145.83;100.00
7730;BME280;3908;52.310;7.230;2023-02-12T06:16:27;51424.78;;;-145.83;100.00
7730;BME280;3908;52.310;7.230;2023-02-12T06:19:14;51430.66;;;-145.83;100.00
7730;BME280;3908;52.310;7.230;2023-02-12T06:22:01;51379.81;;;-145.83;100.00
7730;BME280;3908;52.310;7.230;2023-02-12T06:24:48;51424.78;;;-145.83;100.00
7730;BME280;3908;52.310;7.230;2023-02-12T06:27:37;51391.53;;;-145.83;100.00
7730;BME280;3908;52.310;7.230;2023-02-12T06:30:30;51420.88;;;-145.83;100.00
7730;BME280;3908;52.310;7.230;2023-02-12T06:33:19;51469.78;;;-145.83;100.00
7730;BME280;3908;52.310;7.230;2023-02-12T06:36:06;51432.63;;;-145.83;100.00
7730;BME280;3908;52.310;7.230;2023-02-12T06:38:54;51428.72;;;-145.83;100.00
7730;BME280;3908;52.310;7.230;2023-02-12T06:41:41;51385.66;;;-145.83;100.00
7730;BME280;3908;52.310;7.230;2023-02-12T06:44:30;51375.88;;;-145.83;100.00
7730;BME280;3908;52.310;7.230;2023-02-12T06:47:17;51377.84;;;-145.83;100.00
7730;BME280;3908;52.310;7.230;2023-02-12T06:50:05;51407.19;;;-145.83;100.00
7730;BME280;3908;52.310;7.230;2023-02-12T06:52:52;51383.72;;;-145.83;100.00
7730;BME280;3908;52.310;7.230;2023-02-12T06:55:39;51416.97;;;-145.83;100.00
7730;BME280;3908;52.310;7.230;2023-02-12T06:58:26;51415.00;;;-145.83;100.00
7730;BME280;3908;52.310;7.230;2023-02-12T07:01:16;51405.22;;;-145.83;100.00
7730;BME280;3908;52.310;7.230;2023-02-12T07:04:04;51385.66;;;-145.83;100.00
7730;BME280;3908;52.310;7.230;2023-02-12T07:06:51;51411.09;;;-145.83;100.00
7730;BME280;3908;52.310;7.230;2023-02-12T07:09:38;51409.16;;;-145.83;100.00
7730;BME280;3908;52.310;7.230;2023-02-12T07:12:25;51422.84;;;-145.83;100.00
7730;BME280;3908;52.310;7.230;2023-02-12T07:15:13;51438.50;;;-145.83;100.00
7730;BME280;3908;52.310;7.230;2023-02-12T07:18:01;51438.50;;;-145.83;100.00
7730;BME280;3908;52.310;7.230;2023-02-12T07:20:48;51465.88;;;-145.83;100.00
7730;BME280;3908;52.310;7.230;2023-02-12T07:23:35;51418.94;;;-145.83;100.00
7730;BME280;3908;52.310;7.230;2023-02-12T07:26:23;51399.38;;;-145.83;100.00
7730;BME280;3908;52.310;7.230;2023-02-12T07:29:10;51438.50;;;-145.83;100.00
7730;BME280;3908;52.310;7.230;2023-02-12T07:31:57;51420.88;;;-145.83;100.00
7730;BME280;3908;52.310;7.230;2023-02-12T07:34:47;51415.00;;;-145.83;100.00
7730;BME280;3908;52.310;7.230;2023-02-12T07:37:34;51430.66;;;-145.83;100.00
7730;BME280;3908;52.310;7.230;2023-02-12T07:40:21;51438.50;;;-145.83;100.00
7730;BME280;3908;52.310;7.230;2023-02-12T07:43:08;51454.13;;;-145.83;100.00
7730;BME280;3908;52.310;7.230;2023-02-12T07:45:55;51428.72;;;-145.83;100.00
7730;BME280;3908;52.310;7.230;2023-02-12T07:48:42;51422.84;;;-145.83;100.00
7730;BME280;3908;52.310;7.230;2023-02-12T07:51:32;51452.19;;;-145.83;100.00
7730;BME280;3908;52.310;7.230;2023-02-12T07:54:19;51434.56;;;-145.83;100.00
7730;BME280;3908;52.310;7.230;2023-02-12T07:57:06;51407.19;;;-145.83;100.00
7730;BME280;3908;52.310;7.230;2023-02-12T07:59:53;51432.63;;;-145.83;100.00
7730;BME280;3908;52.310;7.230;2023-02-12T08:02:40;51426.75;;;-145.83;100.00
7730;BME280;3908;52.310;7.230;2023-02-12T08:05:27;51438.50;;;-145.83;100.00
7730;BME280;3908;52.310;7.230;2023-02-12T08:08:16;51381.75;;;-145.83;100.00
7730;BME280;3908;52.310;7.230;2023-02-12T08:11:03;51444.34;;;-145.83;100.00
7730;BME280;3908;52.310;7.230;2023-02-12T08:13:51;51461.97;;;-145.83;100.00
7730;BME280;3908;52.310;7.230;2023-02-12T08:16:39;51432.63;;;-145.83;100.00
7730;BME280;3908;52.310;7.230;2023-02-12T08:19:26;51415.00;;;-145.83;100.00
7730;BME280;3908;52.310;7.230;2023-02-12T08:22:13;51444.34;;;-145.83;100.00
7730;BME280;3908;52.310;7.230;2023-02-12T08:25:01;51395.44;;;-145.83;100.00
7730;BME280;3908;52.310;7.230;2023-02-12T08:27:48;51444.34;;;-145.83;100.00
7730;BME280;3908;52.310;7.230;2023-02-12T08:30:35;51448.28;;;-145.83;100.00
7730;BME280;3908;52.310;7.230;2023-02-12T08:33:22;51477.63;;;-145.83;100.00
7730;BME280;3908;52.310;7.230;2023-02-12T08:36:11;51424.78;;;-145.83;100.00
7730;BME280;3908;52.310;7.230;2023-02-12T08:38:59;51420.88;;;-145.83;100.00
7730;BME280;3908;52.310;7.230;2023-02-12T08:41:48;51422.84;;;-145.83;100.00
7730;BME280;3908;52.310;7.230;2023-02-12T08:44:35;51430.66;;;-145.83;100.00
7730;BME280;3908;52.310;7.230;2023-02-12T08:47:22;51432.63;;;-145.83;100.00
7730;BME280;3908;52.310;7.230;2023-02-12T08:50:09;51448.28;;;-145.83;100.00
7730;BME280;3908;52.310;7.230;2023-02-12T08:52:56;51413.06;;;-145.83;100.00
7730;BME280;3908;52.310;7.230;2023-02-12T08:55:47;51461.97;;;-145.83;100.00
7730;BME280;3908;52.310;7.230;2023-02-12T08:58:36;51467.84;;;-145.83;100.00
7730;BME280;3908;52.310;7.230;2023-02-12T09:01:25;51450.22;;;-145.83;100.00
7730;BME280;3908;52.310;7.230;2023-02-12T09:04:15;51428.72;;;-145.83;100.00
7730;BME280;3908;52.310;7.230;2023-02-12T09:07:02;51428.72;;;-145.83;100.00
7730;BME280;3908;52.310;7.230;2023-02-12T09:09:49;51452.19;;;-145.83;100.00
7730;BME280;3908;52.310;7.230;2023-02-12T09:12:36;51454.13;;;-145.83;100.00
7730;BME280;3908;52.310;7.230;2023-02-12T09:15:25;51438.50;;;-145.83;100.00
7730;BME280;3908;52.310;7.230;2023-02-12T09:18:13;51477.63;;;-145.83;100.00
7730;BME280;3908;52.310;7.230;2023-02-12T09:21:01;51458.06;;;-145.83;100.00
7730;BME280;3908;52.310;7.230;2023-02-12T09:23:49;51460.00;;;-145.83;100.00
7730;BME280;3908;52.310;7.230;2023-02-12T09:26:38;51444.34;;;-145.83;100.00
7730;BME280;3908;52.310;7.230;2023-02-12T09:29:25;51450.22;;;-145.83;100.00
7730;BME280;3908;52.310;7.230;2023-02-12T09:32:13;51469.78;;;-145.83;100.00
7730;BME280;3908;52.310;7.230;2023-02-12T09:35:00;51467.84;;;-145.83;100.00
7730;BME280;3908;52.310;7.230;2023-02-12T09:37:47;51505.00;;;-145.83;100.00
7730;BME280;3908;52.310;7.230;2023-02-12T09:40:41;51440.44;;;-145.83;100.00
7730;BME280;3908;52.310;7.230;2023-02-12T09:43:33;51471.75;;;-145.83;100.00
7730;BME280;3908;52.310;7.230;2023-02-12T09:46:27;51450.22;;;-145.83;100.00
7730;BME280;3908;52.310;7.230;2023-02-12T09:49:25;51438.50;;;-145.83;100.00
7730;BME280;3908;52.310;7.230;2023-02-12T09:52:19;51493.25;;;-145.83;100.00
7730;BME280;3908;52.310;7.230;2023-02-12T09:55:10;51471.75;;;-145.83;100.00
7730;BME280;3908;52.310;7.230;2023-02-12T09:58:00;51483.47;;;-145.83;100.00
7730;BME280;3908;52.310;7.230;2023-02-12T10:00:48;51438.50;;;-145.83;100.00
7730;BME280;3908;52.310;7.230;2023-02-12T10:03:35;51448.28;;;-145.83;100.00
7730;BME280;3908;52.310;7.230;2023-02-12T10:06:25;51463.91;;;-145.83;100.00
7730;BME280;3908;52.310;7.230;2023-02-12T10:25:11;51460.00;;;-145.83;100.00
7730;BME280;3908;52.310;7.230;2023-02-12T10:28:07;51444.34;;;-145.83;100.00
7730;BME280;3908;52.310;7.230;2023-02-12T10:30:57;51475.66;;;-145.83;100.00
7730;BME280;3908;52.310;7.230;2023-02-12T10:33:46;51458.06;;;-145.83;100.00
7730;BME280;3908;52.310;7.230;2023-02-12T10:36:38;51483.47;;;-145.83;100.00
7730;BME280;3908;52.310;7.230;2023-02-12T10:39:30;51489.34;;;-145.83;100.00
7730;BME280;3908;52.310;7.230;2023-02-12T10:42:28;51479.56;;;-145.83;100.00
7730;BME280;3908;52.310;7.230;2023-02-12T10:45:20;51444.34;;;-145.83;100.00
7730;BME280;3908;52.310;7.230;2023-02-12T10:48:10;51469.78;;;-145.83;100.00
7730;BME280;3908;52.310;7.230;2023-02-12T10:51:10;51479.56;;;-145.83;100.00
7730;BME280;3908;52.310;7.230;2023-02-12T10:54:35;51487.41;;;-145.83;100.00
7730;BME280;3908;52.310;7.230;2023-02-12T10:57:26;51440.44;;;-145.83;100.00
7730;BME280;3908;52.310;7.230;2023-02-12T11:00:21;51503.06;;;-145.83;100.00
7730;BME280;3908;52.310;7.230;2023-02-12T11:03:19;51469.78;;;-145.83;100.00
7730;BME280;3908;52.310;7.230;2023-02-12T11:06:12;51479.56;;;-145.83;100.00
7730;BME280;3908;52.310;7.230;2023-02-12T11:09:00;51485.44;;;-145.83;100.00
7730;BME280;3908;52.310;7.230;2023-02-12T11:11:47;51469.78;;;-145.83;100.00
7730;BME280;3908;52.310;7.230;2023-02-12T11:14:36;51465.88;;;-145.83;100.00
7730;BME280;3908;52.310;7.230;2023-02-12T11:17:26;51512.84;;;-145.83;100.00
7730;BME280;3908;52.310;7.230;2023-02-12T11:20:21;51446.31;;;-145.83;100.00
7730;BME280;3908;52.310;7.230;2023-02-12T11:23:24;51465.88;;;-145.83;99.77
7730;BME280;3908;52.310;7.230;2023-02-12T11:26:24;51471.75;;;-145.83;100.00
7730;BME280;3908;52.310;7.230;2023-02-12T11:29:18;51434.56;;;-145.83;99.44
7730;BME280;3908;52.310;7.230;2023-02-12T11:32:17;51442.41;;;-145.83;100.00
7730;BME280;3908;52.310;7.230;2023-02-12T11:35:09;51432.63;;;-145.83;100.00
7730;BME280;3908;52.310;7.230;2023-02-12T11:37:58;51452.19;;;-145.83;100.00
7730;BME280;3908;52.310;7.230;2023-02-12T11:40:46;51487.41;;;-145.83;99.03
7730;BME280;3908;52.310;7.230;2023-02-12T11:43:35;51465.88;;;-145.83;99.22
7730;BME280;3908;52.310;7.230;2023-02-12T11:46:25;51471.75;;;-145.83;97.72
7730;BME280;3908;52.310;7.230;2023-02-12T11:49:18;51432.63;;;-145.83;98.31
7730;BME280;3908;52.310;7.230;2023-02-12T11:52:17;51483.47;;;-145.83;99.65
7730;BME280;3908;52.310;7.230;2023-02-12T11:55:17;51448.28;;;-145.83;99.45
7730;BME280;3908;52.310;7.230;2023-02-12T11:58:15;51506.97;;;-145.83;98.62
7730;BME280;3908;52.310;7.230;2023-02-12T12:01:07;51452.19;;;-145.83;93.80
7730;BME280;3908;52.310;7.230;2023-02-12T12:04:01;51473.69;;;-145.83;94.97
7730;BME280;3908;52.310;7.230;2023-02-12T12:06:55;51497.19;;;-145.83;94.00
7730;BME280;3908;52.310;7.230;2023-02-12T12:09:47;51473.69;;;-145.83;95.21
7730;BME280;3908;52.310;7.230;2023-02-12T12:12:52;51458.06;;;-145.83;94.22
7730;BME280;3908;52.310;7.230;2023-02-12T12:15:44;51465.88;;;-145.83;96.93
7730;BME280;3908;52.310;7.230;2023-02-12T12:18:55;51469.78;;;-145.83;94.94
7730;BME280;3908;52.310;7.230;2023-02-12T12:24:51;51456.09;;;-145.83;92.49
7730;BME280;3908;52.310;7.230;2023-02-12T12:27:54;51487.41;;;-145.83;94.50
7730;BME280;3908;52.310;7.230;2023-02-12T12:31:00;51463.91;;;-145.83;96.14
7730;BME280;3908;52.310;7.230;2023-02-12T12:33:50;51446.31;;;-145.83;96.22
7730;BME280;3908;52.310;7.230;2023-02-12T12:36:59;51487.41;;;-145.83;96.19
7730;BME280;3908;52.310;7.230;2023-02-12T12:40:02;51467.84;;;-145.83;93.60
7730;BME280;3908;52.310;7.230;2023-02-12T12:43:12;51467.84;;;-145.83;94.76
7730;BME280;3908;52.310;7.230;2023-02-12T12:46:30;51485.44;;;-145.83;94.91
7730;BME280;3908;52.310;7.230;2023-02-12T12:49:31;51450.22;;;-145.83;95.79
7730;BME280;3908;52.310;7.230;2023-02-12T12:52:54;51444.34;;;-145.83;97.26
7730;BME280;3908;52.310;7.230;2023-02-12T12:56:05;51420.88;;;-145.83;98.57
7730;BME280;3908;52.310;7.230;2023-02-12T13:09:32;51463.91;;;-145.83;96.69
7730;BME280;3908;52.310;7.230;2023-02-12T13:12:48;51477.63;;;-145.83;97.90
7730;BME280;3908;52.310;7.230;2023-02-12T13:15:40;51452.19;;;-145.83;97.37
7730;BME280;3908;52.310;7.230;2023-02-12T13:18:36;51485.44;;;-145.83;98.14
7730;BME280;3908;52.310;7.230;2023-02-12T13:21:37;51448.28;;;-145.83;97.87
7730;BME280;3908;52.310;7.230;2023-02-12T13:24:32;51467.84;;;-145.83;98.18
7730;BME280;3908;52.310;7.230;2023-02-12T13:27:23;51450.22;;;-145.83;96.88
7730;BME280;3908;52.310;7.230;2023-02-12T13:30:20;51461.97;;;-145.83;96.80
7730;BME280;3908;52.310;7.230;2023-02-12T13:33:11;51418.94;;;-145.83;97.69
7730;BME280;3908;52.310;7.230;2023-02-12T13:36:04;51489.34;;;-145.83;98.11
7730;BME280;3908;52.310;7.230;2023-02-12T13:38:56;51461.97;;;-145.83;98.40
7730;BME280;3908;52.310;7.230;2023-02-12T13:41:53;51483.47;;;-145.83;97.56
7730;BME280;3908;52.310;7.230;2023-02-12T13:44:50;51483.47;;;-145.83;97.82
7730;BME280;3908;52.310;7.230;2023-02-12T13:47:48;51497.19;;;-145.83;98.36
7730;BME280;3908;52.310;7.230;2023-02-12T13:50:42;51481.53;;;-145.83;98.81
7730;BME280;3908;52.310;7.230;2023-02-12T13:53:43;51471.75;;;-145.83;99.41
7730;BME280;3908;52.310;7.230;2023-02-12T13:56:36;51452.19;;;-145.83;98.98
7730;BME280;3908;52.310;7.230;2023-02-12T13:59:40;51479.56;;;-145.83;98.35
7730;BME280;3908;52.310;7.230;2023-02-12T14:02:44;51463.91;;;-145.83;98.49
7730;BME280;3908;52.310;7.230;2023-02-12T14:05:34;51469.78;;;-145.83;98.56
7730;BME280;3908;52.310;7.230;2023-02-12T14:08:33;51461.97;;;-145.83;98.31
7730;BME280;3908;52.310;7.230;2023-02-12T14:11:24;51463.91;;;-145.83;98.55
7730;BME280;3908;52.310;7.230;2023-02-12T14:14:25;51444.34;;;-145.83;100.00
7730;BME280;3908;52.310;7.230;2023-02-12T14:17:50;51440.44;;;-145.83;100.00
7730;BME280;3908;52.310;7.230;2023-02-12T14:20:40;51438.50;;;-145.83;98.68
7730;BME280;3908;52.310;7.230;2023-02-12T14:23:27;51471.75;;;-145.83;99.62
7730;BME280;3908;52.310;7.230;2023-02-12T14:26:19;51460.00;;;-145.83;100.00
7730;BME280;3908;52.310;7.230;2023-02-12T14:29:17;51477.63;;;-145.83;100.00
7730;BME280;3908;52.310;7.230;2023-02-12T14:35:40;51469.78;;;-145.83;99.16
7730;BME280;3908;52.310;7.230;2023-02-12T14:38:58;51479.56;;;-145.83;99.52
7730;BME280;3908;52.310;7.230;2023-02-12T14:41:52;51469.78;;;-145.83;100.00
7730;BME280;3908;52.310;7.230;2023-02-12T14:44:45;51495.22;;;-145.83;100.00
7730;BME280;3908;52.310;7.230;2023-02-12T14:47:50;51448.28;;;-145.83;100.00
7730;BME280;3908;52.310;7.230;2023-02-12T14:50:50;51481.53;;;-145.83;100.00
7730;BME280;3908;52.310;7.230;2023-02-12T14:53:38;51465.88;;;-145.83;100.00
7730;BME280;3908;52.310;7.230;2023-02-12T14:56:33;51467.84;;;-145.83;100.00
7730;BME280;3908;52.310;7.230;2023-02-12T14:59:25;51477.63;;;-145.83;100.00
7730;BME280;3908;52.310;7.230;2023-02-12T15:02:23;51481.53;;;-145.83;100.00
7730;BME280;3908;52.310;7.230;2023-02-12T15:05:15;51475.66;;;-145.83;100.00
7730;BME280;3908;52.310;7.230;2023-02-12T15:08:10;51471.75;;;-145.83;100.00
7730;BME280;3908;52.310;7.230;2023-02-12T15:11:11;51446.31;;;-145.83;100.00
7730;BME280;3908;52.310;7.230;2023-02-12T15:14:02;51469.78;;;-145.83;100.00
7730;BME280;3908;52.310;7.230;2023-02-12T15:16:54;51460.00;;;-145.83;100.00
7730;BME280;3908;52.310;7.230;2023-02-12T15:19:49;51438.50;;;-145.83;100.00
7730;BME280;3908;52.310;7.230;2023-02-12T15:22:42;51460.00;;;-145.83;100.00
7730;BME280;3908;52.310;7.230;2023-02-12T15:25:31;51430.66;;;-145.83;100.00
7730;BME280;3908;52.310;7.230;2023-02-12T15:28:22;51430.66;;;-145.83;100.00
7730;BME280;3908;52.310;7.230;2023-02-12T15:31:14;51460.00;;;-145.83;100.00
7730;BME280;3908;52.310;7.230;2023-02-12T15:34:03;51485.44;;;-145.83;100.00
7730;BME280;3908;52.310;7.230;2023-02-12T15:36:50;51424.78;;;-145.83;100.00